Time;durP1;ratioP1;P1;durP2;ratioP2;P2;SDS_P1;SDS_P2;PMS_P1;PMS_P2;Temp;Humidity;BMP_temperature;BMP_pressure;BME280_temperature;BME280_humidity;BME280_pressure;Samples;Min_cycle;Max_cycle;Signal;HPM_P1;HPM_P2
2021/11/18 00:01:21;;;;;;;15.57;9.98;;;12.10;96.70;;;;;;4891488;29;20705;-74
2021/11/18 00:03:50;;;;;;;13.55;10.73;;;11.90;96.70;;;;;;4878498;29;20099;-74
2021/11/18 00:06:18;;;;;;;14.30;10.40;;;11.90;96.70;;;;;;4872466;29;20100;-74
2021/11/18 00:08:46;;;;;;;12.77;9.70;;;12.00;96.70;;;;;;4888126;29;20131;-74
2021/11/18 00:11:17;;;;;;;14.02;9.73;;;11.90;96.70;;;;;;4872750;29;20052;-74
2021/11/18 00:13:47;;;;;;;12.40;8.93;;;11.90;96.70;;;;;;4871727;29;20436;-74
2021/11/18 00:16:16;;;;;;;10.95;8.63;;;11.70;96.70;;;;;;4884542;29;20461;-76
2021/11/18 00:18:46;;;;;;;9.90;8.00;;;11.60;96.70;;;;;;4883575;29;20068;-75
2021/11/18 00:21:16;;;;;;;10.95;8.50;;;11.60;96.70;;;;;;4874795;29;20040;-76
2021/11/18 00:23:47;;;;;;;9.15;7.82;;;11.70;96.70;;;;;;4872017;29;20152;-76
2021/11/18 00:26:16;;;;;;;10.05;7.78;;;11.70;96.70;;;;;;4877525;29;20507;-76
2021/11/18 00:28:46;;;;;;;11.75;8.23;;;11.80;96.70;;;;;;4872097;29;20179;-76
2021/11/18 00:31:17;;;;;;;13.63;9.77;;;11.70;96.70;;;;;;4874873;29;20060;-76
2021/11/18 00:33:47;;;;;;;14.32;9.75;;;11.60;96.70;;;;;;4886742;29;20139;-76
2021/11/18 00:36:16;;;;;;;12.82;10.20;;;11.70;96.70;;;;;;4869858;29;20054;-76
2021/11/18 00:38:45;;;;;;;12.60;9.23;;;11.70;96.70;;;;;;4886578;29;20056;-76
2021/11/18 00:41:15;;;;;;;13.82;9.35;;;11.70;96.70;;;;;;4886104;29;20048;-76
2021/11/18 00:43:44;;;;;;;12.38;10.15;;;11.70;96.70;;;;;;4867454;29;20063;-76
2021/11/18 00:46:12;;;;;;;12.45;9.20;;;11.60;96.70;;;;;;4870174;29;20538;-76
2021/11/18 00:48:42;;;;;;;12.10;8.90;;;11.60;96.70;;;;;;4889784;29;20495;-76
2021/11/18 00:51:13;;;;;;;13.73;8.48;;;11.60;96.70;;;;;;4888497;29;20052;-76
2021/11/18 00:53:44;;;;;;;12.50;8.90;;;11.60;96.70;;;;;;4866732;29;20056;-76
2021/11/18 00:56:21;;;;;;;12.15;8.60;;;11.70;96.70;;;;;;4871411;29;20076;-76
2021/11/18 00:58:50;;;;;;;11.90;8.85;;;11.60;96.70;;;;;;4871273;29;20056;-76
2021/11/18 01:01:21;;;;;;;11.95;8.00;;;11.70;96.70;;;;;;4888092;29;20128;-76
2021/11/18 01:03:50;;;;;;;11.25;8.55;;;11.70;96.70;;;;;;4871784;29;20059;-76
2021/11/18 01:06:20;;;;;;;14.30;9.13;;;11.80;96.70;;;;;;4872318;29;20056;-76
2021/11/18 01:08:50;;;;;;;11.02;8.30;;;11.70;96.70;;;;;;4884420;29;20511;-76
2021/11/18 01:11:21;;;;;;;13.23;9.10;;;11.70;96.70;;;;;;4870746;29;20059;-76
2021/11/18 01:13:50;;;;;;;11.20;8.48;;;11.60;96.70;;;;;;4854326;29;20113;-76
2021/11/18 01:16:20;;;;;;;10.75;8.55;;;11.70;96.70;;;;;;4872028;29;20484;-76
2021/11/18 01:18:49;;;;;;;12.00;9.18;;;11.60;96.70;;;;;;4870632;29;20049;-73
2021/11/18 01:21:20;;;;;;;13.30;9.32;;;11.60;96.70;;;;;;4870442;29;20052;-74
2021/11/18 01:23:50;;;;;;;13.20;9.02;;;11.60;96.70;;;;;;4882951;29;20160;-74
2021/11/18 01:26:26;;;;;;;12.75;9.35;;;11.60;96.70;;;;;;4882693;29;20055;-73
2021/11/18 01:28:55;;;;;;;13.57;9.55;;;11.50;96.70;;;;;;4889851;29;20084;-73
2021/11/18 01:31:23;;;;;;;11.80;8.82;;;11.50;96.70;;;;;;4872381;29;20044;-73
2021/11/18 01:33:58;;;;;;;13.40;8.73;;;11.60;96.70;;;;;;4884658;29;20049;-74
2021/11/18 01:36:29;;;;;;;12.90;8.35;;;11.50;96.70;;;;;;4872173;29;20088;-74
2021/11/18 01:39:04;;;;;;;13.10;8.57;;;11.50;96.70;;;;;;4880343;29;20557;-74
2021/11/18 01:41:34;;;;;;;11.85;8.13;;;11.40;96.70;;;;;;4872988;29;20168;-73
2021/11/18 01:44:14;;;;;;;10.25;7.88;;;11.50;96.70;;;;;;4870626;29;21212;-73
2021/11/18 01:46:42;;;;;;;13.32;7.63;;;11.50;96.70;;;;;;4870060;29;20045;-73
2021/11/18 01:49:20;;;;;;;8.00;6.55;;;11.40;96.70;;;;;;4870981;29;20080;-74
2021/11/18 01:51:52;;;;;;;11.07;7.60;;;11.50;96.70;;;;;;4879599;29;20056;-74
2021/11/18 01:54:24;;;;;;;9.45;6.90;;;11.50;96.70;;;;;;4870629;29;20515;-73
2021/11/18 01:56:53;;;;;;;12.35;6.30;;;11.60;96.70;;;;;;4868058;29;20419;-74
2021/11/18 01:59:25;;;;;;;7.35;5.40;;;11.50;96.70;;;;;;4883935;29;20091;-73
2021/11/18 02:02:13;;;;;;;7.72;4.95;;;11.40;96.70;;;;;;4887551;29;20060;-73
2021/11/18 02:05:18;;;;;;;6.82;4.60;;;11.40;96.70;;;;;;4875755;29;20047;-74
2021/11/18 02:07:52;;;;;;;8.52;5.57;;;11.20;96.70;;;;;;4874755;29;20507;-73
2021/11/18 02:10:30;;;;;;;11.30;6.05;;;11.10;96.70;;;;;;4873067;29;20044;-74
2021/11/18 02:13:01;;;;;;;8.82;5.78;;;10.90;96.70;;;;;;4885109;29;20111;-73
2021/11/18 02:15:32;;;;;;;8.07;5.80;;;10.80;96.70;;;;;;4869171;29;20444;-74
2021/11/18 02:18:03;;;;;;;8.68;5.78;;;10.90;96.70;;;;;;4872580;29;20116;-73
2021/11/18 02:20:36;;;;;;;7.28;5.38;;;11.00;96.70;;;;;;4869170;29;20224;-74
2021/11/18 02:23:13;;;;;;;8.77;5.88;;;11.10;96.70;;;;;;4884553;29;20049;-74
2021/11/18 02:25:46;;;;;;;8.35;4.93;;;11.20;96.70;;;;;;4869657;29;20143;-73
2021/11/18 02:28:15;;;;;;;7.30;5.07;;;11.20;96.70;;;;;;4869609;29;20052;-74
2021/11/18 02:30:44;;;;;;;6.32;5.07;;;11.30;96.70;;;;;;4870148;29;20048;-74
2021/11/18 02:33:14;;;;;;;5.72;4.93;;;11.30;96.70;;;;;;4880435;29;20048;-74
2021/11/18 02:35:47;;;;;;;6.55;4.57;;;11.30;96.70;;;;;;4869490;29;20132;-74
2021/11/18 02:38:17;;;;;;;8.80;4.70;;;11.30;96.70;;;;;;4849936;29;20063;-73
2021/11/18 02:40:46;;;;;;;5.85;4.15;;;11.30;96.70;;;;;;4868714;29;20059;-74
2021/11/18 02:43:17;;;;;;;7.00;4.50;;;11.20;96.70;;;;;;4877622;29;20071;-75
2021/11/18 02:45:47;;;;;;;7.38;4.72;;;11.10;96.70;;;;;;4874518;29;20108;-75
2021/11/18 02:48:17;;;;;;;4.97;4.05;;;10.90;96.70;;;;;;4872992;29;20045;-75
2021/11/18 02:51:03;;;;;;;9.18;4.28;;;10.90;96.70;;;;;;4893161;29;20087;-75
2021/11/18 02:53:32;;;;;;;6.22;4.60;;;10.80;96.70;;;;;;4870331;29;20059;-75
2021/11/18 02:56:00;;;;;;;7.15;4.57;;;10.70;96.70;;;;;;4872199;29;20051;-75
2021/11/18 02:58:29;;;;;;;6.32;4.20;;;10.80;96.70;;;;;;4872896;29;20142;-75
2021/11/18 03:01:01;;;;;;;5.30;4.22;;;10.80;96.70;;;;;;4888947;29;20213;-75
2021/11/18 03:03:30;;;;;;;7.20;3.60;;;10.80;96.70;;;;;;4873066;29;20434;-75
2021/11/18 03:06:02;;;;;;;4.88;3.97;;;10.70;96.70;;;;;;4872469;29;20059;-75
2021/11/18 03:08:30;;;;;;;4.70;3.67;;;10.90;96.70;;;;;;4873694;29;20396;-75
2021/11/18 03:10:59;;;;;;;4.28;3.33;;;10.80;96.70;;;;;;4873106;29;20135;-75
2021/11/18 03:13:30;;;;;;;6.05;4.00;;;10.90;96.70;;;;;;4878855;29;20052;-75
2021/11/18 03:16:04;;;;;;;4.68;3.70;;;10.90;96.70;;;;;;4871539;29;20052;-75
2021/11/18 03:18:32;;;;;;;4.78;3.50;;;11.00;96.70;;;;;;4874376;29;20139;-75
2021/11/18 03:21:07;;;;;;;4.82;3.70;;;10.90;96.70;;;;;;4874150;29;20068;-75
2021/11/18 03:23:37;;;;;;;3.88;3.38;;;11.00;96.70;;;;;;4871847;29;20113;-75
2021/11/18 03:26:12;;;;;;;4.70;3.58;;;11.00;96.70;;;;;;4885767;29;20049;-75
2021/11/18 03:28:41;;;;;;;4.65;3.28;;;11.00;96.70;;;;;;4863010;29;20291;-75
2021/11/18 03:31:11;;;;;;;4.55;3.63;;;11.00;96.70;;;;;;4872397;29;20075;-74
2021/11/18 03:33:42;;;;;;;4.90;3.47;;;10.80;96.70;;;;;;4891805;29;20048;-75
2021/11/18 03:36:12;;;;;;;3.67;3.08;;;10.80;96.70;;;;;;4889354;29;20056;-75
2021/11/18 03:38:41;;;;;;;5.45;3.53;;;10.80;96.70;;;;;;4887820;29;20537;-75
2021/11/18 03:41:17;;;;;;;;;;;10.70;96.70;;;;;;4863652;29;20891;-75
2021/11/18 03:43:50;;;;;;;4.45;3.10;;;10.80;96.70;;;;;;4859304;29;20010;-75
2021/11/18 03:46:20;;;;;;;3.50;2.80;;;10.90;96.70;;;;;;4874595;29;20048;-75
2021/11/18 03:48:51;;;;;;;3.75;2.80;;;10.80;96.70;;;;;;4871898;29;20053;-75
2021/11/18 03:51:23;;;;;;;4.32;3.28;;;10.60;96.70;;;;;;4870697;29;20049;-75
2021/11/18 03:53:54;;;;;;;4.32;3.22;;;10.50;96.70;;;;;;4888208;29;20522;-74
2021/11/18 03:56:24;;;;;;;4.05;2.80;;;10.50;96.70;;;;;;4873132;29;20059;-76
2021/11/18 03:58:52;;;;;;;5.97;3.33;;;10.60;96.70;;;;;;4872957;29;20054;-75
2021/11/18 04:01:21;;;;;;;4.93;3.17;;;10.70;96.70;;;;;;4880755;29;20049;-76
2021/11/18 04:03:54;;;;;;;4.80;3.15;;;10.70;96.70;;;;;;4884724;29;20575;-75
2021/11/18 04:06:24;;;;;;;4.65;3.00;;;10.60;96.70;;;;;;4875337;29;20507;-75
2021/11/18 04:09:00;;;;;;;3.38;3.00;;;10.40;96.70;;;;;;4871362;29;20230;-75
2021/11/18 04:11:29;;;;;;;4.22;2.72;;;10.50;96.70;;;;;;4874864;29;20119;-75
2021/11/18 04:14:03;;;;;;;3.13;2.67;;;10.50;96.70;;;;;;4874376;29;20881;-75
2021/11/18 04:16:31;;;;;;;5.03;3.05;;;10.50;96.70;;;;;;4872330;29;20064;-75
2021/11/18 04:18:59;;;;;;;3.45;2.58;;;10.50;96.70;;;;;;4873687;29;20037;-75
2021/11/18 04:21:31;;;;;;;6.13;2.70;;;10.50;96.70;;;;;;4860449;29;20062;-75
2021/11/18 04:24:00;;;;;;;4.70;2.70;;;10.40;96.70;;;;;;4871363;29;20049;-74
2021/11/18 04:26:31;;;;;;;3.10;2.60;;;10.30;96.70;;;;;;4869485;29;20449;-75
2021/11/18 04:28:59;;;;;;;4.10;2.97;;;10.20;96.70;;;;;;4867017;29;20075;-75
2021/11/18 04:31:30;;;;;;;6.22;2.85;;;10.30;96.70;;;;;;4872361;29;20045;-75
2021/11/18 04:33:59;;;;;;;4.97;2.83;;;10.40;96.70;;;;;;4868673;29;20060;-75
2021/11/18 04:36:29;;;;;;;4.07;2.90;;;10.50;96.70;;;;;;4871757;29;20056;-74
2021/11/18 04:38:58;;;;;;;4.25;2.80;;;10.50;96.70;;;;;;4872569;29;20061;-75
2021/11/18 04:41:28;;;;;;;4.72;2.90;;;10.50;96.70;;;;;;4888154;29;20048;-75
2021/11/18 04:43:58;;;;;;;3.45;2.60;;;10.40;96.70;;;;;;4871880;29;20471;-75
2021/11/18 04:46:37;;;;;;;4.40;2.78;;;10.50;96.70;;;;;;4872342;29;20084;-75
2021/11/18 04:49:17;;;;;;;4.07;2.70;;;10.50;96.70;;;;;;4875198;29;20499;-75
2021/11/18 04:51:53;;;;;;;4.20;2.80;;;10.50;96.70;;;;;;4881087;29;20131;-75
2021/11/18 04:54:22;;;;;;;3.35;2.63;;;10.30;96.70;;;;;;4890228;29;20529;-75
2021/11/18 04:56:52;;;;;;;4.18;2.58;;;10.30;96.70;;;;;;4871979;29;20078;-75
2021/11/18 04:59:20;;;;;;;3.35;2.65;;;10.40;96.70;;;;;;4883822;29;20073;-75
2021/11/18 05:01:48;;;;;;;4.20;2.88;;;10.40;96.70;;;;;;4889845;29;20044;-75
2021/11/18 05:04:17;;;;;;;4.30;2.92;;;10.40;96.70;;;;;;4855008;29;20040;-74
2021/11/18 05:06:46;;;;;;;4.22;2.70;;;10.20;96.70;;;;;;4868805;29;20068;-74
2021/11/18 05:09:15;;;;;;;5.53;2.95;;;10.30;96.70;;;;;;4873237;29;20121;-75
2021/11/18 05:11:45;;;;;;;5.97;3.28;;;10.20;96.70;;;;;;4874513;29;20069;-75
2021/11/18 05:14:13;;;;;;;4.78;3.50;;;10.30;96.70;;;;;;4878066;29;20151;-74
2021/11/18 05:16:42;;;;;;;5.30;3.08;;;10.40;96.70;;;;;;4887766;29;20238;-74
2021/11/18 05:19:11;;;;;;;5.20;3.08;;;10.30;96.70;;;;;;4873029;29;20523;-75
2021/11/18 05:21:41;;;;;;;7.65;3.35;;;10.30;96.70;;;;;;4875964;29;20072;-75
2021/11/18 05:24:12;;;;;;;6.13;3.80;;;10.20;96.70;;;;;;4871408;29;20218;-75
2021/11/18 05:26:41;;;;;;;6.03;4.50;;;10.10;96.70;;;;;;4869493;29;20079;-75
2021/11/18 05:29:10;;;;;;;6.70;4.75;;;10.10;96.70;;;;;;4884824;29;20199;-74
2021/11/18 05:31:38;;;;;;;8.75;4.43;;;10.20;96.70;;;;;;4872283;29;20059;-75
2021/11/18 05:34:40;;;;;;;5.80;4.03;;;10.20;96.70;;;;;;4884074;29;20052;-75
2021/11/18 05:37:12;;;;;;;6.72;4.20;;;10.20;96.70;;;;;;4869310;29;20432;-74
2021/11/18 05:39:40;;;;;;;5.03;4.35;;;10.30;96.70;;;;;;4872453;29;20123;-75
2021/11/18 05:42:12;;;;;;;6.45;4.07;;;10.30;96.70;;;;;;4886674;29;20052;-74
2021/11/18 05:44:42;;;;;;;6.63;4.53;;;10.30;96.70;;;;;;4870027;29;20048;-74
2021/11/18 05:47:09;;;;;;;5.38;3.80;;;10.30;96.70;;;;;;4885958;29;20075;-74
2021/11/18 05:49:37;;;;;;;5.35;3.63;;;10.30;96.70;;;;;;4870937;29;20048;-74
2021/11/18 05:52:16;;;;;;;6.03;3.85;;;10.30;96.70;;;;;;4874192;29;20060;-74
2021/11/18 05:54:45;;;;;;;5.50;3.88;;;10.30;96.70;;;;;;4854596;29;20131;-75
2021/11/18 05:57:15;;;;;;;5.28;3.88;;;10.20;96.70;;;;;;4879911;29;20175;-74
2021/11/18 05:59:46;;;;;;;5.70;3.70;;;10.20;96.70;;;;;;4869106;29;20124;-74
2021/11/18 06:02:15;;;;;;;4.80;4.05;;;10.20;96.70;;;;;;4854978;29;20135;-74
2021/11/18 06:04:45;;;;;;;6.25;3.75;;;10.20;96.70;;;;;;4872435;29;20582;-74
2021/11/18 06:07:13;;;;;;;6.90;4.22;;;10.10;96.70;;;;;;4871207;29;20068;-75
2021/11/18 06:09:43;;;;;;;7.80;4.53;;;10.10;96.70;;;;;;4857285;29;20490;-75
2021/11/18 06:12:14;;;;;;;6.88;4.32;;;10.20;96.70;;;;;;4868734;29;20095;-74
2021/11/18 06:14:42;;;;;;;5.03;4.20;;;10.20;96.70;;;;;;4867532;29;20143;-74
2021/11/18 06:17:10;;;;;;;4.75;4.15;;;10.30;96.70;;;;;;4867195;29;20140;-75
2021/11/18 06:19:38;;;;;;;9.43;4.95;;;10.30;96.70;;;;;;4881111;29;20057;-74
2021/11/18 06:22:07;;;;;;;4.82;3.97;;;10.00;96.70;;;;;;4870506;29;20048;-74
2021/11/18 06:24:54;;;;;;;5.22;4.00;;;9.90;96.70;;;;;;4869903;29;20112;-74
2021/11/18 06:27:23;;;;;;;6.07;3.85;;;9.80;96.70;;;;;;4855594;29;20063;-74
2021/11/18 06:29:52;;;;;;;9.18;4.28;;;9.80;96.70;;;;;;4868857;29;20049;-74
2021/11/18 06:32:22;;;;;;;5.10;3.63;;;9.80;96.70;;;;;;4871526;29;20095;-74
2021/11/18 06:34:51;;;;;;;5.05;3.72;;;9.80;96.70;;;;;;4887803;29;20177;-74
2021/11/18 06:37:19;;;;;;;6.18;4.03;;;9.90;96.70;;;;;;4870059;29;20052;-74
2021/11/18 06:39:48;;;;;;;7.65;4.10;;;9.90;96.70;;;;;;4872027;29;20519;-74
2021/11/18 06:42:17;;;;;;;7.72;4.30;;;10.00;96.70;;;;;;4870627;29;20062;-75
2021/11/18 06:44:58;;;;;;;6.35;3.70;;;10.00;96.70;;;;;;4863743;29;20048;-74
2021/11/18 06:47:27;;;;;;;6.18;3.90;;;10.10;96.70;;;;;;4896064;29;20087;-75
2021/11/18 06:49:56;;;;;;;10.13;3.83;;;10.10;96.70;;;;;;4873095;29;20460;-74
2021/11/18 06:52:24;;;;;;;8.90;4.00;;;10.10;96.70;;;;;;4876803;29;20138;-74
2021/11/18 06:54:53;;;;;;;8.30;4.57;;;10.10;96.70;;;;;;4869188;29;20048;-75
2021/11/18 06:57:22;;;;;;;6.28;3.60;;;10.10;96.70;;;;;;4873807;29;20097;-75
2021/11/18 06:59:51;;;;;;;6.75;4.07;;;10.10;96.70;;;;;;4860922;29;20507;-75
2021/11/18 07:02:20;;;;;;;9.82;4.10;;;10.20;96.70;;;;;;4872370;29;20128;-76
2021/11/18 07:04:49;;;;;;;8.55;4.32;;;10.30;96.70;;;;;;4872861;29;20059;-76
2021/11/18 07:07:18;;;;;;;6.40;4.03;;;10.30;96.70;;;;;;4856809;29;20506;-74
2021/11/18 07:09:48;;;;;;;10.10;5.55;;;10.40;96.70;;;;;;4886569;29;20155;-74
2021/11/18 07:12:23;;;;;;;14.25;5.80;;;10.40;96.70;;;;;;4888191;29;20051;-74
2021/11/18 07:14:52;;;;;;;9.45;5.25;;;10.30;96.70;;;;;;4884498;29;20172;-74
2021/11/18 07:17:22;;;;;;;11.70;5.35;;;10.40;96.70;;;;;;4886402;29;20156;-74
2021/11/18 07:19:52;;;;;;;10.50;4.55;;;10.50;96.70;;;;;;4873183;29;20063;-73
2021/11/18 07:22:23;;;;;;;9.43;4.13;;;10.50;96.70;;;;;;4871095;29;20060;-74
2021/11/18 07:25:09;;;;;;;9.70;4.38;;;10.60;96.70;;;;;;4869803;29;20052;-74
2021/11/18 07:27:38;;;;;;;6.90;4.40;;;10.60;96.70;;;;;;4866515;29;20147;-73
2021/11/18 07:30:08;;;;;;;7.82;3.85;;;10.60;96.70;;;;;;4890495;29;20354;-74
2021/11/18 07:32:39;;;;;;;7.10;3.85;;;10.60;96.70;;;;;;4889589;29;20147;-74
2021/11/18 07:35:17;;;;;;;5.45;3.92;;;10.70;96.70;;;;;;4852193;29;20101;-74
2021/11/18 07:37:46;;;;;;;5.15;3.88;;;10.70;96.70;;;;;;4858231;29;20048;-74
2021/11/18 07:40:17;;;;;;;6.15;4.32;;;10.80;96.70;;;;;;4888715;29;20080;-74
2021/11/18 07:42:48;;;;;;;5.97;3.78;;;10.80;96.70;;;;;;4873136;29;20412;-74
2021/11/18 07:45:49;;;;;;;7.05;4.03;;;10.80;96.70;;;;;;4870235;29;20232;-73
2021/11/18 07:48:45;;;;;;;6.28;4.43;;;10.80;96.70;;;;;;4894149;29;20067;-74
2021/11/18 07:51:19;;;;;;;5.20;4.30;;;10.90;96.70;;;;;;4873890;29;20048;-74
2021/11/18 07:53:49;;;;;;;6.20;4.63;;;10.90;96.70;;;;;;4875398;29;20060;-74
2021/11/18 07:56:19;;;;;;;8.05;4.88;;;10.90;96.70;;;;;;4871409;29;20444;-75
2021/11/18 07:58:48;;;;;;;7.38;5.93;;;11.00;96.70;;;;;;4871128;29;20260;-74
2021/11/18 08:01:19;;;;;;;7.15;4.75;;;11.00;96.70;;;;;;4872002;29;20475;-74
2021/11/18 08:03:51;;;;;;;8.85;5.55;;;11.10;96.70;;;;;;4871821;29;20058;-74
2021/11/18 08:06:38;;;;;;;8.82;5.60;;;11.20;96.70;;;;;;4887717;29;20041;-74
2021/11/18 08:09:10;;;;;;;11.30;5.88;;;11.30;96.70;;;;;;4871959;29;20044;-73
2021/11/18 08:11:49;;;;;;;8.20;6.18;;;11.40;96.70;;;;;;4886285;29;20041;-74
2021/11/18 08:14:20;;;;;;;10.35;5.75;;;11.40;96.70;;;;;;4889360;29;20052;-74
2021/11/18 08:16:52;;;;;;;12.23;6.47;;;11.50;96.70;;;;;;4873582;29;20403;-74
2021/11/18 08:19:23;;;;;;;10.38;6.28;;;11.60;96.70;;;;;;4884199;29;20519;-74
2021/11/18 08:21:58;;;;;;;9.98;6.68;;;11.60;96.70;;;;;;4869208;29;20135;-73
2021/11/18 08:24:31;;;;;;;8.13;5.35;;;11.80;96.70;;;;;;4889366;29;20434;-74
2021/11/18 08:27:02;;;;;;;8.85;5.35;;;11.90;96.70;;;;;;4886197;29;20045;-74
2021/11/18 08:29:36;;;;;;;8.05;5.32;;;12.00;96.70;;;;;;4871592;29;20551;-74
2021/11/18 08:32:07;;;;;;;8.07;5.22;;;12.10;96.70;;;;;;4872766;29;20488;-74
2021/11/18 08:34:44;;;;;;;8.20;5.53;;;12.20;96.70;;;;;;4887633;29;20366;-74
2021/11/18 08:37:17;;;;;;;7.45;5.70;;;12.20;96.70;;;;;;4855529;29;20607;-74
2021/11/18 08:39:48;;;;;;;7.80;5.28;;;12.30;96.70;;;;;;4867702;29;20147;-75
2021/11/18 08:42:19;;;;;;;9.57;6.05;;;12.40;96.70;;;;;;4854693;29;20045;-74
2021/11/18 08:44:55;;;;;;;11.20;4.90;;;12.50;96.70;;;;;;4849718;29;20041;-74
2021/11/18 08:47:27;;;;;;;8.43;5.22;;;12.60;96.70;;;;;;4838256;29;20048;-74
2021/11/18 08:50:03;;;;;;;9.20;4.95;;;12.70;96.70;;;;;;4854376;29;20076;-75
2021/11/18 08:52:35;;;;;;;7.00;5.00;;;12.70;96.70;;;;;;4869476;29;20449;-74
2021/11/18 08:55:08;;;;;;;8.20;5.45;;;12.70;96.70;;;;;;4854210;29;20045;-74
2021/11/18 08:57:39;;;;;;;8.45;5.60;;;12.90;96.70;;;;;;4839706;29;20080;-74
2021/11/18 09:00:33;;;;;;;8.55;6.22;;;12.90;96.70;;;;;;4828324;29;20052;-74
2021/11/18 09:03:15;;;;;;;7.55;5.75;;;13.10;96.70;;;;;;4853506;29;20076;-74
2021/11/18 09:05:46;;;;;;;7.60;5.95;;;13.10;96.70;;;;;;4850470;29;21101;-74
2021/11/18 09:08:16;;;;;;;6.32;5.30;;;13.20;96.70;;;;;;4854665;29;20591;-74
2021/11/18 09:10:52;;;;;;;7.28;4.97;;;13.20;96.70;;;;;;4850907;29;20045;-74
2021/11/18 09:13:21;;;;;;;7.00;5.30;;;13.40;96.70;;;;;;4852394;29;20060;-74
2021/11/18 09:15:54;;;;;;;9.35;5.57;;;13.40;96.70;;;;;;4853585;29;20124;-75
2021/11/18 09:18:24;;;;;;;10.10;6.60;;;13.40;96.70;;;;;;4853025;29;20052;-74
2021/11/18 09:20:56;;;;;;;8.07;5.75;;;13.50;96.70;;;;;;4857661;29;20053;-74
2021/11/18 09:23:29;;;;;;;8.35;5.90;;;13.60;96.70;;;;;;4869499;29;20049;-73
2021/11/18 09:26:03;;;;;;;10.02;5.78;;;13.60;96.70;;;;;;4865878;29;20065;-75
2021/11/18 09:28:32;;;;;;;7.63;5.25;;;13.70;96.70;;;;;;4831939;29;20046;-74
2021/11/18 09:31:15;;;;;;;7.18;5.60;;;13.80;96.70;;;;;;4853103;29;20047;-74
2021/11/18 09:33:46;;;;;;;7.72;6.07;;;13.90;96.70;;;;;;4853319;29;20052;-74
2021/11/18 09:36:22;;;;;;;6.28;4.82;;;14.00;96.70;;;;;;4851578;29;20057;-75
2021/11/18 09:38:53;;;;;;;7.28;5.35;;;14.10;96.70;;;;;;4864133;29;20048;-74
2021/11/18 09:41:56;;;;;;;6.80;4.90;;;14.20;96.70;;;;;;4874651;29;20499;-74
2021/11/18 09:45:16;;;;;;;5.88;5.00;;;14.30;96.70;;;;;;4839369;29;20052;-74
2021/11/18 09:48:37;;;;;;;8.18;6.43;;;14.30;96.70;;;;;;4864251;29;20075;-75
2021/11/18 09:51:33;;;;;;;10.80;7.75;;;14.50;96.70;;;;;;4877381;29;20148;-75
2021/11/18 09:54:26;;;;;;;9.05;6.63;;;14.60;96.70;;;;;;4872101;29;20399;-74
2021/11/18 09:57:19;;;;;;;8.40;5.40;;;14.60;96.70;;;;;;4871080;29;20075;-75
2021/11/18 10:00:05;;;;;;;6.18;5.10;;;14.60;96.70;;;;;;4871261;29;20518;-75
2021/11/18 10:03:08;;;;;;;7.70;5.20;;;14.70;96.70;;;;;;4887293;29;20159;-75
2021/11/18 10:05:50;;;;;;;5.47;4.60;;;14.70;96.70;;;;;;4868930;29;20058;-74
2021/11/18 10:08:22;;;;;;;7.10;4.38;;;14.80;96.70;;;;;;4887993;29;20140;-74
2021/11/18 10:11:16;;;;;;;4.97;4.20;;;15.00;96.70;;;;;;4884040;29;20051;-74
2021/11/18 10:14:15;;;;;;;4.68;4.05;;;15.00;96.70;;;;;;4872426;29;20052;-75
2021/11/18 10:16:50;;;;;;;5.65;3.97;;;15.10;96.70;;;;;;4885151;29;20100;-75
2021/11/18 10:19:27;;;;;;;7.68;4.38;;;15.20;96.70;;;;;;4884500;29;20041;-75
2021/11/18 10:21:58;;;;;;;6.95;4.05;;;15.20;96.70;;;;;;4874636;29;20063;-74
2021/11/18 10:24:32;;;;;;;5.43;4.32;;;15.30;96.70;;;;;;4887455;29;20131;-75
2021/11/18 10:27:10;;;;;;;5.43;4.03;;;15.50;96.70;;;;;;4887499;29;20120;-75
2021/11/18 10:30:12;;;;;;;5.50;4.32;;;15.50;96.70;;;;;;4886608;29;20056;-75
2021/11/18 10:32:49;;;;;;;4.47;3.85;;;15.70;96.70;;;;;;4886137;29;20075;-73
2021/11/18 10:35:33;;;;;;;9.40;3.88;;;15.80;96.70;;;;;;4870196;29;20426;-74
2021/11/18 10:38:22;;;;;;;4.93;3.83;;;15.90;96.70;;;;;;4883915;29;20052;-73
2021/11/18 10:40:54;;;;;;;5.45;4.00;;;16.00;96.70;;;;;;4877312;29;20048;-73
2021/11/18 10:43:27;;;;;;;4.97;4.05;;;16.10;96.70;;;;;;4886005;29;20044;-73
2021/11/18 10:46:20;;;;;;;7.63;4.30;;;16.10;96.70;;;;;;4871442;29;20172;-74
2021/11/18 10:48:57;;;;;;;5.93;4.45;;;16.20;96.70;;;;;;4872888;29;20073;-73
2021/11/18 10:51:33;;;;;;;6.20;4.30;;;16.40;96.70;;;;;;4865652;29;20041;-74
2021/11/18 10:54:04;;;;;;;5.78;4.20;;;16.50;96.70;;;;;;4875324;29;20145;-74
2021/11/18 10:56:46;;;;;;;5.75;4.90;;;16.50;96.70;;;;;;4887389;29;20048;-74
2021/11/18 10:59:18;;;;;;;5.68;4.35;;;16.50;96.70;;;;;;4887354;29;20747;-73
2021/11/18 11:01:49;;;;;;;6.00;4.47;;;16.60;96.70;;;;;;4876982;29;20568;-74
2021/11/18 11:04:39;;;;;;;6.72;4.63;;;16.70;96.70;;;;;;4889993;29;20045;-74
2021/11/18 11:07:06;;;;;;;;;;;16.80;96.70;;;;;;4888944;29;20042;-73
2021/11/18 11:09:36;;;;;;;7.03;4.45;;;17.00;96.70;;;;;;4876463;29;19927;-74
2021/11/18 11:12:16;;;;;;;5.20;4.35;;;17.10;96.70;;;;;;4874340;29;20127;-74
2021/11/18 11:15:09;;;;;;;5.53;4.38;;;17.20;96.70;;;;;;4870767;29;20056;-73
2021/11/18 11:18:10;;;;;;;7.32;4.75;;;17.30;96.70;;;;;;4871113;29;20041;-73
2021/11/18 11:20:49;;;;;;;5.65;3.85;;;17.40;96.70;;;;;;4890410;29;20131;-73
2021/11/18 11:23:25;;;;;;;5.07;4.10;;;17.40;96.70;;;;;;4874928;29;20048;-73
2021/11/18 11:26:27;;;;;;;5.85;4.22;;;17.40;96.70;;;;;;4898639;29;20131;-73
2021/11/18 11:29:02;;;;;;;4.38;3.78;;;17.40;96.70;;;;;;4889547;29;20035;-73
2021/11/18 11:31:42;;;;;;;7.68;4.20;;;17.60;96.70;;;;;;4889767;29;20502;-73
2021/11/18 11:34:34;;;;;;;6.07;4.57;;;17.60;96.70;;;;;;4888241;29;20053;-73
2021/11/18 11:37:29;;;;;;;5.97;4.53;;;17.70;96.70;;;;;;4875752;29;20059;-73
2021/11/18 11:40:01;;;;;;;5.25;4.28;;;17.90;96.70;;;;;;4883415;29;20155;-73
2021/11/18 11:42:58;;;;;;;5.82;4.50;;;18.00;96.70;;;;;;4867620;29;20125;-74
2021/11/18 11:45:40;;;;;;;4.87;4.10;;;18.00;96.70;;;;;;4883229;29;20043;-73
2021/11/18 11:48:50;;;;;;;4.40;4.00;;;18.10;96.70;;;;;;4872157;29;20300;-73
2021/11/18 11:51:43;;;;;;;5.28;3.78;;;18.20;96.70;;;;;;4889080;29;20250;-75
2021/11/18 11:54:37;;;;;;;5.60;3.75;;;18.40;96.70;;;;;;4889146;29;20079;-74
2021/11/18 11:57:25;;;;;;;4.85;4.20;;;18.50;96.70;;;;;;4838850;29;20203;-73
2021/11/18 12:00:04;;;;;;;6.50;3.90;;;18.70;96.70;;;;;;4890046;29;20052;-73
2021/11/18 12:02:46;;;;;;;4.63;3.58;;;18.70;96.70;;;;;;4889367;29;20112;-73
2021/11/18 12:05:22;;;;;;;4.57;3.55;;;18.80;96.70;;;;;;4870115;29;20045;-73
2021/11/18 12:07:57;;;;;;;4.75;3.78;;;19.00;96.70;;;;;;4873044;29;20116;-74
2021/11/18 12:10:29;;;;;;;6.07;4.13;;;19.10;96.70;;;;;;4888788;29;20057;-72
2021/11/18 12:13:14;;;;;;;3.88;3.47;;;19.10;96.70;;;;;;4889238;29;20519;-74
2021/11/18 12:15:47;;;;;;;6.32;3.47;;;19.10;96.70;;;;;;4887754;29;20100;-73
2021/11/18 12:18:23;;;;;;;4.43;3.40;;;19.20;96.70;;;;;;4852114;29;20517;-73
2021/11/18 12:20:56;;;;;;;7.05;4.70;;;19.30;96.70;;;;;;4870310;29;20136;-72
2021/11/18 12:24:06;;;;;;;5.55;4.00;;;19.40;96.70;;;;;;4885548;29;20041;-72
2021/11/18 12:27:03;;;;;;;4.53;3.75;;;19.50;96.70;;;;;;4888168;29;20598;-73
2021/11/18 12:29:40;;;;;;;5.38;4.00;;;19.60;96.70;;;;;;4846460;29;20116;-73
2021/11/18 12:32:36;;;;;;;4.55;3.70;;;19.60;96.70;;;;;;4887063;29;20059;-73
2021/11/18 12:35:14;;;;;;;5.22;3.35;;;19.70;96.70;;;;;;4885772;29;20041;-72
2021/11/18 12:38:07;;;;;;;7.03;3.65;;;19.80;96.70;;;;;;4879141;29;20459;-73
2021/11/18 12:40:58;;;;;;;4.88;4.10;;;19.90;96.70;;;;;;4891119;29;20037;-73
2021/11/18 12:43:53;;;;;;;6.88;4.10;;;20.00;96.70;;;;;;4884759;29;20048;-73
2021/11/18 12:46:30;;;;;;;7.50;5.60;;;20.10;96.70;;;;;;4870356;29;20058;-73
2021/11/18 12:49:09;;;;;;;4.93;3.75;;;20.20;96.70;;;;;;4892133;29;20043;-73
2021/11/18 12:52:11;;;;;;;7.30;4.63;;;20.30;96.70;;;;;;4891103;29;20380;-73
2021/11/18 12:54:47;;;;;;;5.40;4.57;;;20.30;96.70;;;;;;4868875;29;20444;-73
2021/11/18 12:57:30;;;;;;;5.38;3.35;;;20.40;96.70;;;;;;4872094;29;20463;-73
2021/11/18 13:00:06;;;;;;;6.65;5.93;;;20.30;96.70;;;;;;4887358;29;20045;-72
2021/11/18 13:02:59;;;;;;;8.30;7.18;;;20.40;96.70;;;;;;4857741;29;20049;-74
2021/11/18 13:05:52;;;;;;;8.15;6.13;;;20.40;96.70;;;;;;4877199;29;20156;-74
2021/11/18 13:08:57;;;;;;;5.50;4.07;;;20.50;96.70;;;;;;4873047;29;20048;-74
2021/11/18 13:11:48;;;;;;;7.45;3.92;;;20.50;96.70;;;;;;4888652;29;20239;-73
2021/11/18 13:14:57;;;;;;;5.50;3.65;;;20.60;96.70;;;;;;4870345;29;20526;-74
2021/11/18 13:17:45;;;;;;;5.13;2.95;;;20.50;96.70;;;;;;4889230;29;20048;-74
2021/11/18 13:20:44;;;;;;;4.57;3.10;;;20.50;96.70;;;;;;4888574;29;20049;-74
2021/11/18 13:23:37;;;;;;;4.45;3.03;;;20.40;96.70;;;;;;4873692;29;20072;-74
2021/11/18 13:26:15;;;;;;;7.13;3.55;;;20.40;96.70;;;;;;4872884;29;20047;-74
2021/11/18 13:29:10;;;;;;;3.83;2.78;;;20.50;96.70;;;;;;4883864;29;20060;-74